sensor_id;sensor_type;location;lat;lon;timestamp;P1;durP1;ratioP1;P2;durP2;ratioP2
46729;SDS011;32476;50.002;11.854;2023-07-24T00:00:27;5.38;;;4.05;;
46729;SDS011;32476;50.002;11.854;2023-07-24T00:02:54;7.97;;;4.30;;
46729;SDS011;32476;50.002;11.854;2023-07-24T00:05:21;9.18;;;4.63;;
46729;SDS011;32476;50.002;11.854;2023-07-24T00:07:47;6.30;;;3.72;;
46729;SDS011;32476;50.002;11.854;2023-07-24T00:10:15;8.63;;;3.97;;
46729;SDS011;32476;50.002;11.854;2023-07-24T00:12:40;7.70;;;4.20;;
46729;SDS011;32476;50.002;11.854;2023-07-24T00:15:06;7.07;;;4.07;;
46729;SDS011;32476;50.002;11.854;2023-07-24T00:17:35;10.67;;;4.57;;
46729;SDS011;32476;50.002;11.854;2023-07-24T00:20:00;5.43;;;4.03;;
46729;SDS011;32476;50.002;11.854;2023-07-24T00:22:27;6.20;;;4.07;;
46729;SDS011;32476;50.002;11.854;2023-07-24T00:24:54;6.87;;;3.80;;
46729;SDS011;32476;50.002;11.854;2023-07-24T00:27:20;11.50;;;4.67;;
46729;SDS011;32476;50.002;11.854;2023-07-24T00:29:46;10.03;;;4.77;;
46729;SDS011;32476;50.002;11.854;2023-07-24T00:32:13;7.10;;;4.50;;
46729;SDS011;32476;50.002;11.854;2023-07-24T00:34:39;5.30;;;4.07;;
46729;SDS011;32476;50.002;11.854;2023-07-24T00:37:05;9.20;;;4.57;;
46729;SDS011;32476;50.002;11.854;2023-07-24T00:39:33;7.17;;;4.73;;
46729;SDS011;32476;50.002;11.854;2023-07-24T00:41:59;7.77;;;4.80;;
46729;SDS011;32476;50.002;11.854;2023-07-24T00:44:25;7.77;;;4.73;;
46729;SDS011;32476;50.002;11.854;2023-07-24T00:46:52;10.10;;;3.87;;
46729;SDS011;32476;50.002;11.854;2023-07-24T00:49:19;8.60;;;4.90;;
46729;SDS011;32476;50.002;11.854;2023-07-24T00:51:46;7.23;;;4.67;;
46729;SDS011;32476;50.002;11.854;2023-07-24T00:54:14;7.63;;;4.33;;
46729;SDS011;32476;50.002;11.854;2023-07-24T00:56:42;6.20;;;4.20;;
46729;SDS011;32476;50.002;11.854;2023-07-24T00:59:10;7.37;;;4.67;;
46729;SDS011;32476;50.002;11.854;2023-07-24T01:01:38;6.73;;;4.20;;
46729;SDS011;32476;50.002;11.854;2023-07-24T01:04:07;6.53;;;4.47;;
46729;SDS011;32476;50.002;11.854;2023-07-24T01:06:33;8.73;;;4.53;;
46729;SDS011;32476;50.002;11.854;2023-07-24T01:09:01;7.90;;;4.97;;
46729;SDS011;32476;50.002;11.854;2023-07-24T01:11:33;1999.90;;;999.90;;
46729;SDS011;32476;50.002;11.854;2023-07-24T01:14:10;1999.90;;;999.90;;
46729;SDS011;32476;50.002;11.854;2023-07-24T01:16:44;1999.90;;;999.90;;
46729;SDS011;32476;50.002;11.854;2023-07-24T01:19:33;1999.90;;;999.90;;
46729;SDS011;32476;50.002;11.854;2023-07-24T01:22:12;1999.90;;;999.90;;
46729;SDS011;32476;50.002;11.854;2023-07-24T01:25:00;1999.90;;;999.90;;
46729;SDS011;32476;50.002;11.854;2023-07-24T01:27:56;1999.90;;;999.90;;
46729;SDS011;32476;50.002;11.854;2023-07-24T01:30:24;1999.90;;;999.90;;
46729;SDS011;32476;50.002;11.854;2023-07-24T01:32:50;1999.90;;;999.90;;
46729;SDS011;32476;50.002;11.854;2023-07-24T01:35:16;1999.90;;;999.90;;
46729;SDS011;32476;50.002;11.854;2023-07-24T01:37:43;1999.90;;;999.90;;
46729;SDS011;32476;50.002;11.854;2023-07-24T01:40:12;1999.90;;;999.90;;
46729;SDS011;32476;50.002;11.854;2023-07-24T01:42:38;1999.90;;;999.90;;
46729;SDS011;32476;50.002;11.854;2023-07-24T01:45:07;1999.90;;;999.90;;
46729;SDS011;32476;50.002;11.854;2023-07-24T01:47:33;1999.90;;;999.90;;
46729;SDS011;32476;50.002;11.854;2023-07-24T01:49:59;1999.90;;;999.90;;
46729;SDS011;32476;50.002;11.854;2023-07-24T01:52:27;1999.90;;;999.90;;
46729;SDS011;32476;50.002;11.854;2023-07-24T01:54:53;1999.90;;;999.90;;
46729;SDS011;32476;50.002;11.854;2023-07-24T01:57:18;1999.90;;;999.90;;
46729;SDS011;32476;50.002;11.854;2023-07-24T01:59:46;1999.90;;;999.90;;
46729;SDS011;32476;50.002;11.854;2023-07-24T02:02:14;24.83;;;22.77;;
46729;SDS011;32476;50.002;11.854;2023-07-24T02:04:39;9.65;;;5.53;;
46729;SDS011;32476;50.002;11.854;2023-07-24T02:07:07;9.25;;;6.30;;
46729;SDS011;32476;50.002;11.854;2023-07-24T02:09:34;7.95;;;5.43;;
46729;SDS011;32476;50.002;11.854;2023-07-24T02:12:00;9.02;;;5.55;;
46729;SDS011;32476;50.002;11.854;2023-07-24T02:14:28;9.48;;;5.53;;
46729;SDS011;32476;50.002;11.854;2023-07-24T02:16:54;10.35;;;5.35;;
46729;SDS011;32476;50.002;11.854;2023-07-24T02:19:20;10.07;;;5.93;;
46729;SDS011;32476;50.002;11.854;2023-07-24T02:21:48;8.68;;;4.82;;
46729;SDS011;32476;50.002;11.854;2023-07-24T02:24:14;9.38;;;5.60;;
46729;SDS011;32476;50.002;11.854;2023-07-24T02:26:40;7.67;;;4.97;;
46729;SDS011;32476;50.002;11.854;2023-07-24T02:29:07;8.02;;;5.32;;
46729;SDS011;32476;50.002;11.854;2023-07-24T02:31:33;9.02;;;5.20;;
46729;SDS011;32476;50.002;11.854;2023-07-24T02:33:59;9.45;;;5.38;;
46729;SDS011;32476;50.002;11.854;2023-07-24T02:36:27;8.27;;;5.30;;
46729;SDS011;32476;50.002;11.854;2023-07-24T02:38:53;11.80;;;5.72;;
46729;SDS011;32476;50.002;11.854;2023-07-24T02:41:18;11.63;;;5.07;;
46729;SDS011;32476;50.002;11.854;2023-07-24T02:43:46;9.53;;;5.53;;
46729;SDS011;32476;50.002;11.854;2023-07-24T02:46:12;7.87;;;5.40;;
46729;SDS011;32476;50.002;11.854;2023-07-24T02:48:38;7.13;;;5.17;;
46729;SDS011;32476;50.002;11.854;2023-07-24T02:51:05;7.87;;;4.83;;
46729;SDS011;32476;50.002;11.854;2023-07-24T02:53:31;8.70;;;5.37;;
46729;SDS011;32476;50.002;11.854;2023-07-24T02:55:57;9.10;;;5.83;;
46729;SDS011;32476;50.002;11.854;2023-07-24T02:58:24;9.00;;;5.23;;
46729;SDS011;32476;50.002;11.854;2023-07-24T03:00:50;10.23;;;5.57;;
46729;SDS011;32476;50.002;11.854;2023-07-24T03:03:16;8.57;;;5.60;;
46729;SDS011;32476;50.002;11.854;2023-07-24T03:05:43;8.27;;;5.73;;
46729;SDS011;32476;50.002;11.854;2023-07-24T03:08:09;10.60;;;5.53;;
46729;SDS011;32476;50.002;11.854;2023-07-24T03:10:39;9.43;;;5.93;;
46729;SDS011;32476;50.002;11.854;2023-07-24T03:13:08;9.27;;;5.63;;
46729;SDS011;32476;50.002;11.854;2023-07-24T03:15:34;8.40;;;5.50;;
46729;SDS011;32476;50.002;11.854;2023-07-24T03:18:00;9.37;;;5.93;;
46729;SDS011;32476;50.002;11.854;2023-07-24T03:20:27;8.80;;;5.77;;
46729;SDS011;32476;50.002;11.854;2023-07-24T03:22:54;11.23;;;5.77;;
46729;SDS011;32476;50.002;11.854;2023-07-24T03:25:19;11.87;;;4.93;;
46729;SDS011;32476;50.002;11.854;2023-07-24T03:27:47;8.07;;;5.30;;
46729;SDS011;32476;50.002;11.854;2023-07-24T03:30:13;8.00;;;5.13;;
46729;SDS011;32476;50.002;11.854;2023-07-24T03:32:39;7.57;;;5.00;;
46729;SDS011;32476;50.002;11.854;2023-07-24T03:35:07;9.80;;;6.23;;
46729;SDS011;32476;50.002;11.854;2023-07-24T03:37:34;9.07;;;5.90;;
46729;SDS011;32476;50.002;11.854;2023-07-24T03:40:01;11.07;;;5.73;;
46729;SDS011;32476;50.002;11.854;2023-07-24T03:42:29;10.23;;;5.70;;
46729;SDS011;32476;50.002;11.854;2023-07-24T03:44:56;14.20;;;5.83;;
46729;SDS011;32476;50.002;11.854;2023-07-24T03:47:23;8.53;;;5.13;;
46729;SDS011;32476;50.002;11.854;2023-07-24T03:49:51;10.83;;;5.93;;
46729;SDS011;32476;50.002;11.854;2023-07-24T03:52:16;8.73;;;5.87;;
46729;SDS011;32476;50.002;11.854;2023-07-24T03:54:42;8.83;;;5.97;;
46729;SDS011;32476;50.002;11.854;2023-07-24T03:57:11;9.53;;;5.60;;
46729;SDS011;32476;50.002;11.854;2023-07-24T03:59:37;9.97;;;5.77;;
46729;SDS011;32476;50.002;11.854;2023-07-24T04:02:03;8.37;;;5.93;;
46729;SDS011;32476;50.002;11.854;2023-07-24T04:04:31;8.83;;;5.20;;
46729;SDS011;32476;50.002;11.854;2023-07-24T04:06:58;10.07;;;5.57;;
46729;SDS011;32476;50.002;11.854;2023-07-24T04:09:24;13.70;;;9.13;;
46729;SDS011;32476;50.002;11.854;2023-07-24T04:11:52;22.57;;;14.00;;
46729;SDS011;32476;50.002;11.854;2023-07-24T04:14:18;28.87;;;18.03;;
46729;SDS011;32476;50.002;11.854;2023-07-24T04:16:44;10.77;;;7.83;;
46729;SDS011;32476;50.002;11.854;2023-07-24T04:19:11;32.93;;;19.90;;
46729;SDS011;32476;50.002;11.854;2023-07-24T04:21:37;24.07;;;14.37;;
46729;SDS011;32476;50.002;11.854;2023-07-24T04:24:03;26.27;;;16.80;;
46729;SDS011;32476;50.002;11.854;2023-07-24T04:26:31;22.73;;;10.80;;
46729;SDS011;32476;50.002;11.854;2023-07-24T04:28:57;13.47;;;8.57;;
46729;SDS011;32476;50.002;11.854;2023-07-24T04:31:23;12.83;;;6.63;;
46729;SDS011;32476;50.002;11.854;2023-07-24T04:33:50;12.97;;;7.27;;
46729;SDS011;32476;50.002;11.854;2023-07-24T04:36:16;15.43;;;6.83;;
46729;SDS011;32476;50.002;11.854;2023-07-24T04:38:42;9.77;;;6.80;;
46729;SDS011;32476;50.002;11.854;2023-07-24T04:41:09;10.47;;;6.20;;
46729;SDS011;32476;50.002;11.854;2023-07-24T04:43:35;11.03;;;7.10;;
46729;SDS011;32476;50.002;11.854;2023-07-24T04:46:01;10.00;;;6.07;;
46729;SDS011;32476;50.002;11.854;2023-07-24T04:48:29;10.43;;;6.83;;
46729;SDS011;32476;50.002;11.854;2023-07-24T04:50:56;11.90;;;7.50;;
46729;SDS011;32476;50.002;11.854;2023-07-24T04:53:22;10.60;;;6.67;;
46729;SDS011;32476;50.002;11.854;2023-07-24T04:55:50;10.67;;;7.00;;
46729;SDS011;32476;50.002;11.854;2023-07-24T04:58:16;15.17;;;8.13;;
46729;SDS011;32476;50.002;11.854;2023-07-24T05:00:42;12.83;;;7.80;;
46729;SDS011;32476;50.002;11.854;2023-07-24T05:03:09;14.67;;;8.50;;
46729;SDS011;32476;50.002;11.854;2023-07-24T05:05:36;9.97;;;7.33;;
46729;SDS011;32476;50.002;11.854;2023-07-24T05:08:03;15.67;;;7.50;;
46729;SDS011;32476;50.002;11.854;2023-07-24T05:10:35;14.33;;;7.80;;
46729;SDS011;32476;50.002;11.854;2023-07-24T05:13:01;11.27;;;7.10;;
46729;SDS011;32476;50.002;11.854;2023-07-24T05:15:27;11.73;;;7.63;;
46729;SDS011;32476;50.002;11.854;2023-07-24T05:17:55;11.57;;;7.27;;
46729;SDS011;32476;50.002;11.854;2023-07-24T05:20:21;11.40;;;6.83;;
46729;SDS011;32476;50.002;11.854;2023-07-24T05:22:47;9.73;;;6.50;;
46729;SDS011;32476;50.002;11.854;2023-07-24T05:25:14;15.98;;;7.53;;
46729;SDS011;32476;50.002;11.854;2023-07-24T05:27:40;10.57;;;7.23;;
46729;SDS011;32476;50.002;11.854;2023-07-24T05:30:06;10.20;;;6.20;;
46729;SDS011;32476;50.002;11.854;2023-07-24T05:32:34;13.37;;;6.90;;
46729;SDS011;32476;50.002;11.854;2023-07-24T05:35:00;11.75;;;6.50;;
46729;SDS011;32476;50.002;11.854;2023-07-24T05:37:26;1089.05;;;529.47;;
46729;SDS011;32476;50.002;11.854;2023-07-24T05:39:53;1999.90;;;999.90;;
46729;SDS011;32476;50.002;11.854;2023-07-24T05:42:19;1999.90;;;999.90;;
46729;SDS011;32476;50.002;11.854;2023-07-24T05:44:45;1999.90;;;999.90;;
46729;SDS011;32476;50.002;11.854;2023-07-24T05:47:13;1999.90;;;999.90;;
46729;SDS011;32476;50.002;11.854;2023-07-24T05:49:39;1999.90;;;999.90;;
46729;SDS011;32476;50.002;11.854;2023-07-24T05:52:05;1999.90;;;999.90;;
46729;SDS011;32476;50.002;11.854;2023-07-24T05:54:32;1999.90;;;999.90;;
46729;SDS011;32476;50.002;11.854;2023-07-24T05:56:59;1999.90;;;999.90;;
46729;SDS011;32476;50.002;11.854;2023-07-24T05:59:25;1999.90;;;999.90;;
46729;SDS011;32476;50.002;11.854;2023-07-24T06:01:52;1999.90;;;999.90;;
46729;SDS011;32476;50.002;11.854;2023-07-24T06:04:18;176.47;;;33.03;;
46729;SDS011;32476;50.002;11.854;2023-07-24T06:06:44;417.27;;;149.57;;
46729;SDS011;32476;50.002;11.854;2023-07-24T06:09:11;1999.90;;;999.90;;
46729;SDS011;32476;50.002;11.854;2023-07-24T06:11:37;1999.90;;;999.90;;
46729;SDS011;32476;50.002;11.854;2023-07-24T06:14:03;1999.90;;;999.90;;
46729;SDS011;32476;50.002;11.854;2023-07-24T06:16:31;1999.90;;;999.90;;
46729;SDS011;32476;50.002;11.854;2023-07-24T06:18:57;1999.90;;;999.90;;
46729;SDS011;32476;50.002;11.854;2023-07-24T06:21:23;1999.90;;;999.90;;
46729;SDS011;32476;50.002;11.854;2023-07-24T06:23:50;1999.90;;;999.90;;
46729;SDS011;32476;50.002;11.854;2023-07-24T06:26:16;1999.90;;;999.90;;
46729;SDS011;32476;50.002;11.854;2023-07-24T06:28:42;1999.90;;;999.90;;
46729;SDS011;32476;50.002;11.854;2023-07-24T06:31:10;1999.90;;;999.90;;
46729;SDS011;32476;50.002;11.854;2023-07-24T06:33:36;1999.90;;;999.90;;
46729;SDS011;32476;50.002;11.854;2023-07-24T06:36:02;1999.90;;;999.90;;
46729;SDS011;32476;50.002;11.854;2023-07-24T06:38:29;1999.90;;;999.90;;
46729;SDS011;32476;50.002;11.854;2023-07-24T06:40:55;1999.90;;;999.90;;
46729;SDS011;32476;50.002;11.854;2023-07-24T06:43:21;1999.90;;;999.90;;
46729;SDS011;32476;50.002;11.854;2023-07-24T06:45:49;1999.90;;;999.90;;
46729;SDS011;32476;50.002;11.854;2023-07-24T06:48:15;1999.90;;;999.90;;
46729;SDS011;32476;50.002;11.854;2023-07-24T06:50:41;1999.90;;;999.90;;
46729;SDS011;32476;50.002;11.854;2023-07-24T06:53:08;1999.90;;;999.90;;
46729;SDS011;32476;50.002;11.854;2023-07-24T06:55:34;1999.90;;;999.90;;
46729;SDS011;32476;50.002;11.854;2023-07-24T06:58:00;1999.90;;;999.90;;
46729;SDS011;32476;50.002;11.854;2023-07-24T07:00:27;1999.90;;;999.90;;
46729;SDS011;32476;50.002;11.854;2023-07-24T07:02:53;1999.90;;;999.90;;
46729;SDS011;32476;50.002;11.854;2023-07-24T07:05:19;1999.90;;;999.90;;
46729;SDS011;32476;50.002;11.854;2023-07-24T07:07:46;1999.90;;;999.90;;
46729;SDS011;32476;50.002;11.854;2023-07-24T07:10:12;1999.90;;;999.90;;
46729;SDS011;32476;50.002;11.854;2023-07-24T07:12:38;1999.90;;;999.90;;
46729;SDS011;32476;50.002;11.854;2023-07-24T07:15:06;1999.90;;;999.90;;
46729;SDS011;32476;50.002;11.854;2023-07-24T07:17:32;1999.90;;;999.90;;
46729;SDS011;32476;50.002;11.854;2023-07-24T07:19:58;1999.90;;;999.90;;
46729;SDS011;32476;50.002;11.854;2023-07-24T07:22:26;1999.90;;;999.90;;
46729;SDS011;32476;50.002;11.854;2023-07-24T07:24:52;1999.90;;;999.90;;
46729;SDS011;32476;50.002;11.854;2023-07-24T07:27:18;1999.90;;;999.90;;
46729;SDS011;32476;50.002;11.854;2023-07-24T07:29:45;1999.90;;;999.90;;
46729;SDS011;32476;50.002;11.854;2023-07-24T07:32:11;1999.90;;;999.90;;
46729;SDS011;32476;50.002;11.854;2023-07-24T07:34:37;1999.90;;;999.90;;
46729;SDS011;32476;50.002;11.854;2023-07-24T07:37:05;1999.90;;;999.90;;
46729;SDS011;32476;50.002;11.854;2023-07-24T07:39:31;1999.90;;;999.90;;
46729;SDS011;32476;50.002;11.854;2023-07-24T07:41:58;1999.90;;;999.90;;
46729;SDS011;32476;50.002;11.854;2023-07-24T07:44:25;1999.90;;;999.90;;
46729;SDS011;32476;50.002;11.854;2023-07-24T07:46:51;1999.90;;;999.90;;
46729;SDS011;32476;50.002;11.854;2023-07-24T07:49:17;1999.90;;;999.90;;
46729;SDS011;32476;50.002;11.854;2023-07-24T07:51:44;1999.90;;;999.90;;
46729;SDS011;32476;50.002;11.854;2023-07-24T07:54:10;1999.90;;;999.90;;
46729;SDS011;32476;50.002;11.854;2023-07-24T07:56:37;1999.90;;;999.90;;
46729;SDS011;32476;50.002;11.854;2023-07-24T07:59:04;1999.90;;;999.90;;
46729;SDS011;32476;50.002;11.854;2023-07-24T08:01:30;1999.90;;;999.90;;
46729;SDS011;32476;50.002;11.854;2023-07-24T08:03:56;1999.90;;;999.90;;
46729;SDS011;32476;50.002;11.854;2023-07-24T08:06:24;1999.90;;;999.90;;
46729;SDS011;32476;50.002;11.854;2023-07-24T08:08:50;1999.90;;;999.90;;
46729;SDS011;32476;50.002;11.854;2023-07-24T08:11:16;1999.90;;;999.90;;
46729;SDS011;32476;50.002;11.854;2023-07-24T08:13:43;1999.90;;;999.90;;
46729;SDS011;32476;50.002;11.854;2023-07-24T08:16:13;1999.90;;;999.90;;
46729;SDS011;32476;50.002;11.854;2023-07-24T08:18:45;1999.90;;;999.90;;
46729;SDS011;32476;50.002;11.854;2023-07-24T08:21:13;1999.90;;;999.90;;
46729;SDS011;32476;50.002;11.854;2023-07-24T08:23:40;1999.90;;;999.90;;
46729;SDS011;32476;50.002;11.854;2023-07-24T08:26:08;1999.90;;;999.90;;
46729;SDS011;32476;50.002;11.854;2023-07-24T08:28:34;24.75;;;22.45;;
46729;SDS011;32476;50.002;11.854;2023-07-24T08:31:00;14.15;;;10.65;;
46729;SDS011;32476;50.002;11.854;2023-07-24T08:33:28;16.38;;;9.93;;
46729;SDS011;32476;50.002;11.854;2023-07-24T08:36:02;12.38;;;9.98;;
46729;SDS011;32476;50.002;11.854;2023-07-24T08:38:32;15.98;;;10.30;;
46729;SDS011;32476;50.002;11.854;2023-07-24T08:43:28;17.15;;;9.88;;
46729;SDS011;32476;50.002;11.854;2023-07-24T08:46:00;16.02;;;9.77;;
46729;SDS011;32476;50.002;11.854;2023-07-24T08:48:31;15.38;;;10.52;;
46729;SDS011;32476;50.002;11.854;2023-07-24T08:51:06;45.45;;;42.03;;
46729;SDS011;32476;50.002;11.854;2023-07-24T08:53:43;17.35;;;12.38;;
46729;SDS011;32476;50.002;11.854;2023-07-24T08:56:11;14.73;;;11.07;;
46729;SDS011;32476;50.002;11.854;2023-07-24T08:58:37;13.68;;;10.10;;
46729;SDS011;32476;50.002;11.854;2023-07-24T09:01:07;18.17;;;10.75;;
46729;SDS011;32476;50.002;11.854;2023-07-24T09:03:35;12.07;;;8.55;;
46729;SDS011;32476;50.002;11.854;2023-07-24T09:06:02;13.15;;;8.52;;
46729;SDS011;32476;50.002;11.854;2023-07-24T09:08:33;14.38;;;9.07;;
46729;SDS011;32476;50.002;11.854;2023-07-24T09:11:06;14.25;;;8.32;;
46729;SDS011;32476;50.002;11.854;2023-07-24T09:13:38;14.23;;;8.77;;
46729;SDS011;32476;50.002;11.854;2023-07-24T09:16:09;14.20;;;9.65;;
46729;SDS011;32476;50.002;11.854;2023-07-24T09:18:46;12.63;;;9.02;;
46729;SDS011;32476;50.002;11.854;2023-07-24T09:21:14;13.68;;;9.50;;
46729;SDS011;32476;50.002;11.854;2023-07-24T09:23:40;15.57;;;9.15;;
46729;SDS011;32476;50.002;11.854;2023-07-24T09:26:06;14.70;;;9.20;;
46729;SDS011;32476;50.002;11.854;2023-07-24T09:28:35;16.17;;;10.20;;
46729;SDS011;32476;50.002;11.854;2023-07-24T09:31:02;14.25;;;10.13;;
46729;SDS011;32476;50.002;11.854;2023-07-24T09:33:39;16.77;;;10.05;;
46729;SDS011;32476;50.002;11.854;2023-07-24T09:36:08;14.60;;;9.90;;
46729;SDS011;32476;50.002;11.854;2023-07-24T09:38:34;16.88;;;10.63;;
46729;SDS011;32476;50.002;11.854;2023-07-24T09:41:02;14.25;;;9.15;;
46729;SDS011;32476;50.002;11.854;2023-07-24T09:43:30;16.75;;;10.02;;
46729;SDS011;32476;50.002;11.854;2023-07-24T09:45:58;17.08;;;9.52;;
46729;SDS011;32476;50.002;11.854;2023-07-24T09:48:24;14.77;;;10.43;;
46729;SDS011;32476;50.002;11.854;2023-07-24T09:50:54;15.43;;;10.57;;
46729;SDS011;32476;50.002;11.854;2023-07-24T09:53:24;14.95;;;9.57;;
46729;SDS011;32476;50.002;11.854;2023-07-24T09:56:11;14.98;;;9.23;;
46729;SDS011;32476;50.002;11.854;2023-07-24T09:58:39;14.38;;;9.15;;
46729;SDS011;32476;50.002;11.854;2023-07-24T10:01:09;12.40;;;9.18;;
46729;SDS011;32476;50.002;11.854;2023-07-24T10:03:46;14.88;;;9.50;;
46729;SDS011;32476;50.002;11.854;2023-07-24T10:06:13;16.25;;;9.68;;
46729;SDS011;32476;50.002;11.854;2023-07-24T10:08:43;17.45;;;9.88;;
46729;SDS011;32476;50.002;11.854;2023-07-24T10:11:12;16.40;;;10.45;;
46729;SDS011;32476;50.002;11.854;2023-07-24T10:13:40;14.10;;;9.70;;
46729;SDS011;32476;50.002;11.854;2023-07-24T10:16:08;14.52;;;10.30;;
46729;SDS011;32476;50.002;11.854;2023-07-24T10:18:35;14.77;;;9.15;;
46729;SDS011;32476;50.002;11.854;2023-07-24T10:21:10;15.95;;;9.35;;
46729;SDS011;32476;50.002;11.854;2023-07-24T10:23:39;16.45;;;9.60;;
46729;SDS011;32476;50.002;11.854;2023-07-24T10:26:10;15.32;;;9.27;;
46729;SDS011;32476;50.002;11.854;2023-07-24T10:28:37;17.67;;;10.05;;
46729;SDS011;32476;50.002;11.854;2023-07-24T10:31:19;16.35;;;10.05;;
46729;SDS011;32476;50.002;11.854;2023-07-24T10:33:49;13.70;;;9.20;;
46729;SDS011;32476;50.002;11.854;2023-07-24T10:36:17;15.40;;;10.57;;
46729;SDS011;32476;50.002;11.854;2023-07-24T10:38:54;16.27;;;10.18;;
46729;SDS011;32476;50.002;11.854;2023-07-24T10:41:21;15.98;;;10.48;;
46729;SDS011;32476;50.002;11.854;2023-07-24T10:43:49;14.73;;;10.02;;
46729;SDS011;32476;50.002;11.854;2023-07-24T10:46:18;17.80;;;10.48;;
46729;SDS011;32476;50.002;11.854;2023-07-24T10:48:50;16.40;;;9.93;;
46729;SDS011;32476;50.002;11.854;2023-07-24T10:51:18;16.88;;;10.82;;
46729;SDS011;32476;50.002;11.854;2023-07-24T10:53:48;19.23;;;10.57;;
46729;SDS011;32476;50.002;11.854;2023-07-24T10:56:14;16.70;;;10.02;;
46729;SDS011;32476;50.002;11.854;2023-07-24T10:58:43;14.50;;;9.70;;
46729;SDS011;32476;50.002;11.854;2023-07-24T11:01:09;21.65;;;10.68;;
46729;SDS011;32476;50.002;11.854;2023-07-24T11:03:40;15.65;;;10.45;;
46729;SDS011;32476;50.002;11.854;2023-07-24T11:06:18;16.65;;;9.88;;
46729;SDS011;32476;50.002;11.854;2023-07-24T11:13:56;17.88;;;10.55;;
46729;SDS011;32476;50.002;11.854;2023-07-24T11:16:24;14.57;;;9.93;;
46729;SDS011;32476;50.002;11.854;2023-07-24T11:18:50;16.85;;;10.30;;
46729;SDS011;32476;50.002;11.854;2023-07-24T11:21:22;17.50;;;9.75;;
46729;SDS011;32476;50.002;11.854;2023-07-24T11:23:51;15.07;;;9.60;;
46729;SDS011;32476;50.002;11.854;2023-07-24T11:26:22;17.45;;;9.95;;
46729;SDS011;32476;50.002;11.854;2023-07-24T11:28:52;16.52;;;9.55;;
46729;SDS011;32476;50.002;11.854;2023-07-24T11:31:19;16.65;;;9.80;;
46729;SDS011;32476;50.002;11.854;2023-07-24T11:33:46;14.45;;;9.73;;
46729;SDS011;32476;50.002;11.854;2023-07-24T11:36:17;16.92;;;10.57;;
46729;SDS011;32476;50.002;11.854;2023-07-24T11:38:47;16.60;;;10.45;;
46729;SDS011;32476;50.002;11.854;2023-07-24T11:41:13;16.88;;;8.77;;
46729;SDS011;32476;50.002;11.854;2023-07-24T11:43:47;12.93;;;9.25;;
46729;SDS011;32476;50.002;11.854;2023-07-24T11:46:22;14.13;;;8.77;;
46729;SDS011;32476;50.002;11.854;2023-07-24T11:48:51;12.50;;;8.38;;
46729;SDS011;32476;50.002;11.854;2023-07-24T11:51:22;14.93;;;8.05;;
46729;SDS011;32476;50.002;11.854;2023-07-24T11:53:52;15.00;;;8.13;;
46729;SDS011;32476;50.002;11.854;2023-07-24T11:56:30;11.45;;;8.00;;
46729;SDS011;32476;50.002;11.854;2023-07-24T11:58:57;12.95;;;8.18;;
46729;SDS011;32476;50.002;11.854;2023-07-24T12:01:34;12.48;;;8.23;;
46729;SDS011;32476;50.002;11.854;2023-07-24T12:04:01;15.15;;;8.40;;
46729;SDS011;32476;50.002;11.854;2023-07-24T12:06:30;13.45;;;8.93;;
46729;SDS011;32476;50.002;11.854;2023-07-24T12:09:03;13.63;;;8.40;;
46729;SDS011;32476;50.002;11.854;2023-07-24T12:11:32;13.73;;;7.57;;
46729;SDS011;32476;50.002;11.854;2023-07-24T12:13:58;15.88;;;8.32;;
46729;SDS011;32476;50.002;11.854;2023-07-24T12:16:24;13.75;;;7.90;;
46729;SDS011;32476;50.002;11.854;2023-07-24T12:18:52;10.93;;;7.40;;
46729;SDS011;32476;50.002;11.854;2023-07-24T12:21:17;13.18;;;7.75;;
46729;SDS011;32476;50.002;11.854;2023-07-24T12:23:43;13.23;;;8.38;;
46729;SDS011;32476;50.002;11.854;2023-07-24T12:26:11;16.35;;;9.02;;
46729;SDS011;32476;50.002;11.854;2023-07-24T12:28:37;13.07;;;8.30;;
46729;SDS011;32476;50.002;11.854;2023-07-24T12:31:03;13.98;;;9.25;;
46729;SDS011;32476;50.002;11.854;2023-07-24T12:33:31;15.02;;;9.48;;
46729;SDS011;32476;50.002;11.854;2023-07-24T12:35:57;15.48;;;9.07;;
46729;SDS011;32476;50.002;11.854;2023-07-24T12:38:23;12.27;;;8.05;;
46729;SDS011;32476;50.002;11.854;2023-07-24T12:40:50;13.18;;;8.48;;
46729;SDS011;32476;50.002;11.854;2023-07-24T12:43:16;16.33;;;9.45;;
46729;SDS011;32476;50.002;11.854;2023-07-24T12:45:42;12.88;;;8.50;;
46729;SDS011;32476;50.002;11.854;2023-07-24T12:48:09;18.17;;;8.77;;
46729;SDS011;32476;50.002;11.854;2023-07-24T12:50:35;14.88;;;8.50;;
46729;SDS011;32476;50.002;11.854;2023-07-24T12:53:01;16.08;;;9.45;;
46729;SDS011;32476;50.002;11.854;2023-07-24T12:55:29;13.82;;;9.38;;
46729;SDS011;32476;50.002;11.854;2023-07-24T12:57:55;13.40;;;9.35;;
46729;SDS011;32476;50.002;11.854;2023-07-24T13:00:21;13.27;;;8.52;;
46729;SDS011;32476;50.002;11.854;2023-07-24T13:02:50;12.65;;;8.13;;
46729;SDS011;32476;50.002;11.854;2023-07-24T13:05:16;12.98;;;8.27;;
46729;SDS011;32476;50.002;11.854;2023-07-24T13:07:42;13.70;;;8.32;;
46729;SDS011;32476;50.002;11.854;2023-07-24T13:10:09;13.15;;;8.95;;
46729;SDS011;32476;50.002;11.854;2023-07-24T13:12:35;15.70;;;9.55;;
46729;SDS011;32476;50.002;11.854;2023-07-24T13:15:01;15.27;;;9.45;;
46729;SDS011;32476;50.002;11.854;2023-07-24T13:17:29;16.30;;;8.63;;
46729;SDS011;32476;50.002;11.854;2023-07-24T13:19:55;13.43;;;8.10;;
46729;SDS011;32476;50.002;11.854;2023-07-24T13:22:21;15.95;;;8.05;;
46729;SDS011;32476;50.002;11.854;2023-07-24T13:24:48;12.13;;;8.50;;
46729;SDS011;32476;50.002;11.854;2023-07-24T13:27:14;13.57;;;8.27;;
46729;SDS011;32476;50.002;11.854;2023-07-24T13:29:40;11.57;;;7.93;;
46729;SDS011;32476;50.002;11.854;2023-07-24T13:32:07;11.05;;;7.97;;
46729;SDS011;32476;50.002;11.854;2023-07-24T13:34:33;12.05;;;7.95;;
46729;SDS011;32476;50.002;11.854;2023-07-24T13:36:59;13.20;;;8.40;;
46729;SDS011;32476;50.002;11.854;2023-07-24T13:39:28;13.48;;;8.23;;
46729;SDS011;32476;50.002;11.854;2023-07-24T13:41:56;12.15;;;7.57;;
46729;SDS011;32476;50.002;11.854;2023-07-24T13:44:22;11.38;;;7.55;;
46729;SDS011;32476;50.002;11.854;2023-07-24T13:46:50;9.82;;;7.15;;
46729;SDS011;32476;50.002;11.854;2023-07-24T13:49:16;13.57;;;7.82;;
46729;SDS011;32476;50.002;11.854;2023-07-24T13:51:43;12.32;;;7.40;;
46729;SDS011;32476;50.002;11.854;2023-07-24T13:54:10;14.75;;;7.28;;
46729;SDS011;32476;50.002;11.854;2023-07-24T13:56:36;9.93;;;7.28;;
46729;SDS011;32476;50.002;11.854;2023-07-24T13:59:03;10.82;;;7.28;;
46729;SDS011;32476;50.002;11.854;2023-07-24T14:01:31;13.30;;;7.43;;
46729;SDS011;32476;50.002;11.854;2023-07-24T14:03:57;11.20;;;7.43;;
46729;SDS011;32476;50.002;11.854;2023-07-24T14:06:23;9.82;;;6.90;;
46729;SDS011;32476;50.002;11.854;2023-07-24T14:08:50;11.07;;;7.72;;
46729;SDS011;32476;50.002;11.854;2023-07-24T14:11:16;12.50;;;8.50;;
46729;SDS011;32476;50.002;11.854;2023-07-24T14:13:42;11.93;;;7.30;;
46729;SDS011;32476;50.002;11.854;2023-07-24T14:16:11;10.25;;;7.93;;
46729;SDS011;32476;50.002;11.854;2023-07-24T14:18:37;11.48;;;7.47;;